createdAt,value
2019-02-17T05:00:50.061Z,0.00
2019-02-17T05:01:40.539Z,0.00
2019-02-17T05:02:41.984Z,0.00
2019-02-17T05:03:42.212Z,0.00
2019-02-17T05:04:40.885Z,0.00
2019-02-17T05:05:41.166Z,0.00
2019-02-17T05:06:41.285Z,0.00
2019-02-17T05:07:41.485Z,0.00
2019-02-17T05:08:41.637Z,0.00
2019-02-17T05:09:41.843Z,0.00
2019-02-17T05:10:41.997Z,0.00
2019-02-17T05:11:42.196Z,0.00
2019-02-17T05:12:42.391Z,0.00
2019-02-17T05:13:42.612Z,0.00
2019-02-17T05:14:42.801Z,0.00
2019-02-17T05:15:43.161Z,0.00
2019-02-17T05:16:43.115Z,0.00
2019-02-17T05:17:43.285Z,0.00
2019-02-17T05:18:44.285Z,0.00
2019-02-17T05:19:43.698Z,0.00
2019-02-17T05:20:43.834Z,0.00
2019-02-17T05:21:43.984Z,0.00
2019-02-17T05:22:44.199Z,0.00
2019-02-17T05:23:44.292Z,0.00
2019-02-17T05:24:44.629Z,0.00
2019-02-17T05:25:45.478Z,0.00
2019-02-17T05:26:45.043Z,0.00
2019-02-17T05:27:45.218Z,0.00
2019-02-17T05:28:45.404Z,0.00
2019-02-17T05:29:45.551Z,0.00
2019-02-17T05:30:52.838Z,0.00
2019-02-17T05:31:48.666Z,0.00
2019-02-17T05:32:46.162Z,0.00
2019-02-17T05:33:46.392Z,0.00
2019-02-17T05:34:46.427Z,0.00
2019-02-17T05:35:46.637Z,0.00
2019-02-17T05:36:46.879Z,0.00
2019-02-17T05:37:47.170Z,0.00
2019-02-17T05:38:47.325Z,0.00
2019-02-17T05:39:47.501Z,0.00
2019-02-17T05:40:47.672Z,0.00
2019-02-17T05:41:47.860Z,0.00
2019-02-17T05:42:47.956Z,0.00
2019-02-17T05:43:48.109Z,0.00
2019-02-17T05:44:48.180Z,0.00
2019-02-17T05:45:48.358Z,0.00
2019-02-17T05:46:48.669Z,0.00
2019-02-17T05:47:48.760Z,0.00
2019-02-17T05:48:49.016Z,0.00
2019-02-17T05:49:49.107Z,0.00
2019-02-17T05:50:49.297Z,0.00
2019-02-17T05:51:49.471Z,0.00
2019-02-17T05:52:49.671Z,0.00
2019-02-17T05:53:50.006Z,0.00
2019-02-17T05:54:50.546Z,0.00
2019-02-17T05:55:51.364Z,0.00
2019-02-17T05:56:50.530Z,0.00
2019-02-17T05:57:50.845Z,0.00
2019-02-17T05:58:51.586Z,0.00
2019-02-17T05:59:51.249Z,0.00
2019-02-17T06:00:51.519Z,0.00
2019-02-17T06:01:51.560Z,0.00
2019-02-17T06:02:51.616Z,0.00
2019-02-17T06:03:51.903Z,0.00
2019-02-17T06:04:52.073Z,0.00
2019-02-17T06:05:52.209Z,0.00
2019-02-17T06:06:52.263Z,0.00
2019-02-17T06:07:52.478Z,0.00
2019-02-17T06:08:52.676Z,0.00
2019-02-17T06:09:52.881Z,0.00
2019-02-17T06:10:53.151Z,0.00
2019-02-17T06:11:53.268Z,0.00
2019-02-17T06:12:53.446Z,0.00
2019-02-17T06:13:53.662Z,0.00
2019-02-17T06:14:53.837Z,0.00
2019-02-17T06:15:54.017Z,0.00
2019-02-17T06:16:54.258Z,0.00
2019-02-17T06:17:54.308Z,0.00
2019-02-17T06:18:54.555Z,5.62
2019-02-17T06:19:54.750Z,5.62
2019-02-17T06:20:54.991Z,5.62
2019-02-17T06:21:56.091Z,5.62
2019-02-17T06:22:55.401Z,5.62
2019-02-17T06:23:56.466Z,5.62
2019-02-17T06:24:55.661Z,5.62
2019-02-17T06:25:55.756Z,5.62
2019-02-17T06:26:55.940Z,11.25
2019-02-17T06:27:56.188Z,11.25
2019-02-17T06:28:56.440Z,11.25
2019-02-17T06:29:56.755Z,11.25
2019-02-17T06:30:57.159Z,11.25
2019-02-17T06:31:57.128Z,11.25
2019-02-17T06:32:57.104Z,16.88
2019-02-17T06:33:57.223Z,16.88
2019-02-17T06:34:57.441Z,16.88
2019-02-17T06:35:57.699Z,16.88
2019-02-17T06:36:57.850Z,16.88
2019-02-17T06:37:57.965Z,16.88
2019-02-17T06:38:58.184Z,16.88
2019-02-17T06:39:58.453Z,22.50
2019-02-17T06:40:58.603Z,22.50
2019-02-17T06:41:58.747Z,22.50
2019-02-17T06:42:59.057Z,22.50
2019-02-17T06:43:59.042Z,28.12
2019-02-17T06:44:59.171Z,28.12
2019-02-17T06:45:59.442Z,28.12
2019-02-17T06:46:59.557Z,33.75
2019-02-17T06:47:59.783Z,33.75
2019-02-17T06:49:00.076Z,33.75
2019-02-17T06:50:00.340Z,39.38
2019-02-17T06:51:00.523Z,39.38
2019-02-17T06:52:00.707Z,39.38
2019-02-17T06:53:01.016Z,39.38
2019-02-17T06:54:01.079Z,45.00
2019-02-17T06:55:01.273Z,45.00
2019-02-17T06:56:01.618Z,45.00
2019-02-17T06:57:01.686Z,50.62
2019-02-17T06:58:01.848Z,50.62
2019-02-17T06:59:02.524Z,50.62
2019-02-17T07:00:02.415Z,50.62
2019-02-17T07:01:02.389Z,50.62
2019-02-17T07:02:02.704Z,56.25
2019-02-17T07:03:02.850Z,56.25
2019-02-17T07:04:02.854Z,56.25
2019-02-17T07:05:03.506Z,61.88
2019-02-17T07:06:03.237Z,61.88
2019-02-17T07:07:03.717Z,61.88
2019-02-17T07:08:04.119Z,67.50
2019-02-17T07:09:04.827Z,67.50
2019-02-17T07:10:04.905Z,67.50
2019-02-17T07:11:04.357Z,67.50
2019-02-17T07:12:04.370Z,67.50
2019-02-17T07:13:05.173Z,73.12
2019-02-17T07:14:04.826Z,73.12
2019-02-17T07:15:05.001Z,73.12
2019-02-17T07:16:05.228Z,78.75
2019-02-17T07:17:05.407Z,78.75
2019-02-17T07:18:05.511Z,78.75
2019-02-17T07:19:05.768Z,78.75
2019-02-17T07:20:07.013Z,84.38
2019-02-17T07:21:06.089Z,84.38
2019-02-17T07:22:07.126Z,90.00
2019-02-17T07:23:08.162Z,95.62
2019-02-17T07:24:06.674Z,101.25
2019-02-17T07:25:06.936Z,106.88
2019-02-17T07:26:07.107Z,106.88
2019-02-17T07:27:08.133Z,112.50
2019-02-17T07:28:08.172Z,112.50
2019-02-17T07:29:08.142Z,118.12
2019-02-17T07:30:07.754Z,118.12
2019-02-17T07:31:08.088Z,123.75
2019-02-17T07:32:08.286Z,129.38
2019-02-17T07:33:08.287Z,129.38
2019-02-17T07:34:08.383Z,129.38
2019-02-17T07:35:08.696Z,135.00
2019-02-17T07:36:08.843Z,140.62
2019-02-17T07:37:08.941Z,140.62
2019-02-17T07:38:09.195Z,140.62
2019-02-17T07:39:09.377Z,146.25
2019-02-17T07:40:09.503Z,157.50
2019-02-17T07:41:09.759Z,163.12
2019-02-17T07:42:09.827Z,168.75
2019-02-17T07:43:10.057Z,185.62
2019-02-17T07:44:10.178Z,191.25
2019-02-17T07:45:10.639Z,196.88
2019-02-17T07:46:10.514Z,219.38
2019-02-17T07:47:10.928Z,219.38
2019-02-17T07:48:10.923Z,219.38
2019-02-17T07:49:12.191Z,236.25
2019-02-17T07:50:11.299Z,258.75
2019-02-17T07:51:11.661Z,270.00
2019-02-17T07:52:13.220Z,281.25
2019-02-17T07:53:11.857Z,298.12
2019-02-17T07:54:12.089Z,320.62
2019-02-17T07:55:12.212Z,320.62
2019-02-17T07:56:13.007Z,315.00
2019-02-17T07:57:12.999Z,331.88
2019-02-17T07:58:13.714Z,337.50
2019-02-17T07:59:13.465Z,343.12
2019-02-17T08:00:12.971Z,343.12
2019-02-17T08:01:13.338Z,354.38
2019-02-17T08:02:13.210Z,354.38
2019-02-17T08:03:13.445Z,348.75
2019-02-17T08:04:13.589Z,354.38
2019-02-17T08:05:13.715Z,354.38
2019-02-17T08:06:13.880Z,365.62
2019-02-17T08:07:14.005Z,371.25
2019-02-17T08:08:14.209Z,371.25
2019-02-17T08:09:14.363Z,371.25
2019-02-17T08:10:14.529Z,371.25
2019-02-17T08:11:15.233Z,348.75
2019-02-17T08:12:14.782Z,331.88
2019-02-17T08:13:14.942Z,331.88
2019-02-17T08:14:15.117Z,320.62
2019-02-17T08:15:15.252Z,309.38
2019-02-17T08:16:15.356Z,292.50
2019-02-17T08:17:15.528Z,275.62
2019-02-17T08:18:16.361Z,275.62
2019-02-17T08:19:16.663Z,281.25
2019-02-17T08:20:16.659Z,286.88
2019-02-17T08:21:16.160Z,292.50
2019-02-17T08:22:16.261Z,281.25
2019-02-17T08:23:16.510Z,270.00
2019-02-17T08:24:16.645Z,275.62
2019-02-17T08:25:21.735Z,298.12
2019-02-17T08:26:19.080Z,315.00
2019-02-17T08:27:17.297Z,315.00
2019-02-17T08:28:17.434Z,309.38
2019-02-17T08:29:17.594Z,303.75
2019-02-17T08:30:17.753Z,303.75
2019-02-17T08:31:17.964Z,298.12
2019-02-17T08:32:18.141Z,292.50
2019-02-17T08:33:18.258Z,281.25
2019-02-17T08:34:18.396Z,275.62
2019-02-17T08:35:18.498Z,281.25
2019-02-17T08:36:18.728Z,292.50
2019-02-17T08:37:18.863Z,298.12
2019-02-17T08:38:19.039Z,303.75
2019-02-17T08:39:19.235Z,315.00
2019-02-17T08:40:19.399Z,309.38
2019-02-17T08:41:19.554Z,309.38
2019-02-17T08:42:19.687Z,303.75
2019-02-17T08:43:19.835Z,320.62
2019-02-17T08:44:19.984Z,331.88
2019-02-17T08:45:20.107Z,331.88
2019-02-17T08:46:20.236Z,331.88
2019-02-17T08:47:20.509Z,343.12
2019-02-17T08:48:20.605Z,354.38
2019-02-17T08:49:20.761Z,354.38
2019-02-17T08:50:20.919Z,354.38
2019-02-17T08:51:21.059Z,365.62
2019-02-17T08:52:21.176Z,376.88
2019-02-17T08:53:21.340Z,388.12
2019-02-17T08:54:21.474Z,393.75
2019-02-17T08:55:21.592Z,405.00
2019-02-17T08:56:21.859Z,410.62
2019-02-17T08:57:21.987Z,416.25
2019-02-17T08:58:22.147Z,421.88
2019-02-17T08:59:22.256Z,433.12
2019-02-17T09:15:36.389Z,596.25
2019-02-17T09:16:37.706Z,607.50
2019-02-17T09:17:37.835Z,618.75
2019-02-17T09:18:37.984Z,630.00
2019-02-17T09:19:38.140Z,624.38
2019-02-17T09:20:38.341Z,635.62
2019-02-17T09:21:38.585Z,635.62
2019-02-17T09:22:38.804Z,630.00
2019-02-17T09:23:39.011Z,641.25
2019-02-17T09:24:39.222Z,652.50
2019-02-17T09:25:39.447Z,663.75
2019-02-17T09:26:39.665Z,675.00
2019-02-17T09:27:40.906Z,658.12
2019-02-17T10:10:20.400Z,1496.25
2019-02-17T10:11:20.628Z,1648.12
2019-02-17T10:12:20.897Z,1738.12
2019-02-17T10:13:21.041Z,1783.12
2019-02-17T10:14:21.180Z,1743.75
2019-02-17T10:15:22.535Z,1850.62
2019-02-17T10:16:22.661Z,1861.88
2019-02-17T10:17:22.961Z,1631.25
2019-02-17T10:18:23.014Z,1653.75
2019-02-17T10:19:23.127Z,1749.38
2019-02-17T10:20:24.654Z,1766.25
2019-02-17T10:21:24.875Z,1693.12
2019-02-17T10:22:23.979Z,1563.75
2019-02-17T10:23:24.143Z,1490.62
2019-02-17T10:24:24.447Z,1580.62
2019-02-17T10:25:25.153Z,1608.75
2019-02-17T10:26:25.521Z,1631.25
2019-02-17T10:27:25.352Z,1620.00
2019-02-17T10:28:25.774Z,1580.62
2019-02-17T10:29:24.944Z,1541.25
2019-02-17T10:30:25.293Z,1479.38
2019-02-17T10:31:25.371Z,1710.00
2019-02-17T10:32:25.570Z,2576.25
2019-02-17T10:33:26.105Z,3549.38
2019-02-17T10:34:27.615Z,3543.75
2019-02-17T10:35:25.880Z,3504.38
2019-02-17T10:36:26.353Z,2970.00
2019-02-17T10:37:26.217Z,2463.75
2019-02-17T10:38:28.269Z,2491.88
2019-02-17T10:39:28.166Z,2851.88
2019-02-17T10:40:27.762Z,3234.38
2019-02-17T10:41:26.887Z,2964.38
2019-02-17T10:42:29.721Z,3138.75
2019-02-17T10:43:28.318Z,3172.50
2019-02-17T10:44:27.306Z,3324.38
2019-02-17T10:45:33.930Z,3521.25
2019-02-17T10:46:28.625Z,3763.12
2019-02-17T10:47:27.722Z,3701.25
2019-02-17T10:48:31.086Z,3690.00
2019-02-17T10:49:29.192Z,3285.00
2019-02-17T10:50:28.243Z,2407.50
2019-02-17T10:51:28.613Z,2806.88
2019-02-17T10:52:30.886Z,3493.12
2019-02-17T10:53:29.588Z,3560.62
2019-02-17T10:54:30.363Z,3577.50
2019-02-17T10:55:29.162Z,3656.25
2019-02-17T10:56:29.414Z,3622.50
2019-02-17T10:57:29.384Z,3740.62
2019-02-17T10:58:29.687Z,3526.88
2019-02-17T10:59:46.350Z,3532.50
2019-02-17T11:30:35.685Z,3757.50
2019-02-17T11:31:37.661Z,3757.50
2019-02-17T11:32:38.090Z,3757.50
2019-02-17T11:33:37.252Z,3656.25
2019-02-17T11:34:37.544Z,3729.38
2019-02-17T11:35:37.646Z,3701.25
2019-02-17T11:36:37.884Z,3757.50
2019-02-17T11:37:37.963Z,3931.88
2019-02-17T11:38:38.197Z,3802.50
2019-02-17T11:39:38.437Z,3571.88
2019-02-17T11:40:38.720Z,3465.00
2019-02-17T11:41:38.837Z,3645.00
2019-02-17T11:42:38.975Z,3656.25
2019-02-17T11:43:39.091Z,3571.88
2019-02-17T11:44:39.364Z,3661.88
2019-02-17T11:45:39.472Z,3841.88
2019-02-17T11:46:39.736Z,3898.12
2019-02-17T11:47:39.855Z,3706.88
2019-02-17T11:48:39.971Z,3729.38
2019-02-17T11:49:40.254Z,3830.62
2019-02-17T11:50:40.388Z,3948.75
2019-02-17T11:51:40.496Z,3915.00
2019-02-17T11:52:40.620Z,4140.00
2019-02-17T11:53:40.824Z,4218.75
2019-02-17T11:54:41.574Z,3616.88
2019-02-17T11:55:41.338Z,3903.75
2019-02-17T11:56:41.458Z,3858.75
2019-02-17T11:57:41.552Z,4128.75
2019-02-17T11:58:41.843Z,4044.38
2019-02-17T11:59:42.053Z,4010.62
2019-02-17T12:00:42.238Z,4027.50
2019-02-17T12:01:42.382Z,4218.75
2019-02-17T12:02:42.518Z,4303.12
2019-02-17T12:03:42.653Z,4269.38
2019-02-17T12:04:42.856Z,4331.25
2019-02-17T12:05:43.070Z,4415.62
2019-02-17T12:06:43.305Z,4263.75
2019-02-17T12:07:43.502Z,4342.50
2019-02-17T12:08:43.774Z,3937.50
2019-02-17T12:09:43.901Z,3836.25
2019-02-17T12:10:44.113Z,4117.50
2019-02-17T12:11:44.260Z,4106.25
2019-02-17T12:12:44.438Z,4156.88
2019-02-17T12:13:44.699Z,4083.75
2019-02-17T12:14:44.699Z,3993.75
2019-02-17T12:15:44.823Z,4134.38
2019-02-17T12:16:44.944Z,3982.50
2019-02-17T12:17:45.237Z,3408.75
2019-02-17T12:18:45.417Z,3802.50
2019-02-17T12:19:45.621Z,3853.12
2019-02-17T12:20:45.750Z,3937.50
2019-02-17T12:21:45.912Z,4038.75
2019-02-17T12:22:46.126Z,4190.62
2019-02-17T12:23:46.348Z,4162.50
2019-02-17T12:24:46.425Z,3960.00
2019-02-17T12:25:46.657Z,3886.88
2019-02-17T12:26:49.457Z,4016.25
2019-02-17T12:27:46.920Z,3898.12
2019-02-17T12:28:47.208Z,3903.75
2019-02-17T12:29:47.205Z,3886.88
2019-02-17T12:30:47.463Z,3982.50
2019-02-17T12:31:47.637Z,3881.25
2019-02-17T12:32:47.991Z,3785.62
2019-02-17T12:33:48.114Z,3723.75
2019-02-17T12:34:48.239Z,3751.88
2019-02-17T12:35:48.385Z,3886.88
2019-02-17T12:36:48.485Z,3813.75
2019-02-17T12:37:48.691Z,3768.75
2019-02-17T12:38:48.875Z,3847.50
2019-02-17T12:39:49.094Z,3757.50
2019-02-17T12:40:49.354Z,3926.25
2019-02-17T12:41:49.529Z,3858.75
2019-02-17T12:42:51.131Z,3740.62
2019-02-17T12:43:50.914Z,3425.62
2019-02-17T12:44:50.438Z,2919.38
2019-02-17T12:45:50.313Z,2728.12
2019-02-17T13:06:22.985Z,3791.25
2019-02-17T13:07:28.801Z,3993.75
2019-02-17T13:08:24.562Z,3993.75
2019-02-17T13:09:25.042Z,4050.00
2019-02-17T13:10:26.460Z,4033.12
2019-02-17T13:11:25.376Z,4016.25
2019-02-17T13:12:26.008Z,4021.88
2019-02-17T13:13:26.609Z,3898.12
2019-02-17T13:14:26.018Z,3774.38
2019-02-17T13:15:26.942Z,270.00
2019-02-17T13:16:27.744Z,883.12
2019-02-17T13:17:28.173Z,810.00
2019-02-17T13:18:27.916Z,866.25
2019-02-17T13:19:27.517Z,843.75
2019-02-17T13:20:27.928Z,838.12
2019-02-17T13:21:28.283Z,787.50
2019-02-17T13:22:28.255Z,900.00
2019-02-17T13:23:28.675Z,978.75
2019-02-17T13:24:28.259Z,1006.88
2019-02-17T13:25:29.936Z,1006.88
2019-02-17T13:26:28.737Z,1012.50
2019-02-17T13:27:28.824Z,928.12
2019-02-17T13:28:28.962Z,990.00
2019-02-17T13:29:29.382Z,1040.62
2019-02-17T13:30:29.286Z,1046.25
2019-02-17T13:31:29.837Z,1046.25
2019-02-17T13:32:29.940Z,894.38
2019-02-17T13:33:38.775Z,810.00
2019-02-17T13:34:31.615Z,894.38
2019-02-17T13:35:30.167Z,860.62
2019-02-17T13:36:31.562Z,843.75
2019-02-17T13:37:30.652Z,753.75
2019-02-17T13:38:30.658Z,753.75
2019-02-17T13:39:31.044Z,776.25
2019-02-17T13:40:31.120Z,849.38
2019-02-17T13:41:31.091Z,905.62
2019-02-17T13:42:31.249Z,843.75
2019-02-17T13:43:32.184Z,821.25
2019-02-17T13:44:31.892Z,877.50
2019-02-17T13:45:32.634Z,1029.38
2019-02-17T13:46:32.203Z,1068.75
2019-02-17T13:47:32.322Z,1080.00
2019-02-17T13:48:32.569Z,1074.38
2019-02-17T13:49:32.838Z,1051.88
2019-02-17T13:50:33.228Z,1209.38
2019-02-17T13:51:33.683Z,1186.88
2019-02-17T13:52:34.181Z,1136.25
2019-02-17T13:53:34.351Z,1215.00
2019-02-17T13:54:33.470Z,1175.62
2019-02-17T13:55:34.569Z,1068.75
2019-02-17T13:56:34.546Z,961.88
2019-02-17T13:57:40.724Z,956.25
2019-02-17T13:58:34.037Z,1108.12
2019-02-17T13:59:34.368Z,1141.88
2019-02-17T14:00:34.502Z,1130.62
2019-02-17T14:01:35.364Z,1141.88
2019-02-17T14:02:34.880Z,1136.25
2019-02-17T14:03:35.249Z,1035.00
